createdAt,value
2018-03-17T00:01:21.009Z,13.67
2018-03-17T00:03:47.898Z,13.10
2018-03-17T00:06:14.790Z,12.80
2018-03-17T00:08:41.641Z,15.10
2018-03-17T00:11:08.575Z,13.20
2018-03-17T00:13:35.424Z,13.17
2018-03-17T00:16:02.315Z,13.10
2018-03-17T00:18:29.205Z,14.40
2018-03-17T00:20:56.124Z,13.00
2018-03-17T00:23:22.981Z,12.90
2018-03-17T00:25:49.924Z,14.03
2018-03-17T00:28:16.785Z,13.43
2018-03-17T00:30:43.686Z,13.00
2018-03-17T00:33:10.608Z,13.67
2018-03-17T00:35:37.489Z,13.43
2018-03-17T00:38:04.364Z,13.80
2018-03-17T00:40:31.245Z,13.50
2018-03-17T00:42:58.563Z,13.33
2018-03-17T00:45:25.435Z,14.87
2018-03-17T00:47:52.319Z,15.10
2018-03-17T00:50:19.190Z,12.43
2018-03-17T00:52:46.481Z,14.00
2018-03-17T00:55:13.406Z,13.53
2018-03-17T00:57:40.705Z,14.23
2018-03-17T01:00:07.582Z,14.67
2018-03-17T01:02:34.516Z,13.83
2018-03-17T01:05:01.490Z,13.90
2018-03-17T01:07:28.354Z,14.40
2018-03-17T01:09:55.303Z,14.30
2018-03-17T01:12:22.165Z,14.70
2018-03-17T01:14:49.115Z,13.87
2018-03-17T01:17:16.141Z,14.10
2018-03-17T01:19:42.967Z,13.70
2018-03-17T01:22:09.843Z,14.93
2018-03-17T01:24:37.101Z,14.33
2018-03-17T01:27:04.440Z,12.87
2018-03-17T01:29:31.289Z,14.73
2018-03-17T01:31:58.153Z,13.20
2018-03-17T01:34:25.008Z,14.40
2018-03-17T01:36:51.870Z,14.87
2018-03-17T01:39:18.818Z,13.73
2018-03-17T01:41:45.693Z,14.83
2018-03-17T01:44:12.554Z,14.60
2018-03-17T01:46:39.487Z,14.70
2018-03-17T01:49:06.340Z,14.97
2018-03-17T01:51:33.221Z,14.30
2018-03-17T01:54:12.157Z,14.60
2018-03-17T01:56:39.102Z,14.33
2018-03-17T01:59:05.962Z,13.70
2018-03-17T02:01:32.920Z,13.63
2018-03-17T02:03:59.775Z,13.87
2018-03-17T02:06:26.634Z,14.53
2018-03-17T02:08:53.512Z,13.93
2018-03-17T02:11:20.358Z,14.30
2018-03-17T02:13:47.234Z,13.60
2018-03-17T02:16:14.155Z,14.87
2018-03-17T02:18:41.048Z,15.17
2018-03-17T02:21:07.991Z,16.57
2018-03-17T02:23:34.937Z,15.70
2018-03-17T02:26:01.989Z,15.50
2018-03-17T02:28:28.847Z,16.10
2018-03-17T02:30:55.710Z,16.37
2018-03-17T02:33:22.575Z,16.37
2018-03-17T02:35:49.452Z,16.20
2018-03-17T02:38:16.334Z,15.53
2018-03-17T02:40:43.205Z,16.03
2018-03-17T02:43:10.103Z,16.27
2018-03-17T02:45:37.081Z,15.37
2018-03-17T02:48:03.940Z,15.70
2018-03-17T02:50:30.893Z,15.60
2018-03-17T02:52:57.782Z,16.57
2018-03-17T02:55:24.626Z,15.07
2018-03-17T02:57:51.508Z,15.20
2018-03-17T03:00:18.378Z,15.03
2018-03-17T03:02:45.639Z,15.00
2018-03-17T03:05:12.909Z,15.23
2018-03-17T03:07:40.276Z,14.77
2018-03-17T03:10:07.608Z,15.40
2018-03-17T03:12:34.741Z,15.90
2018-03-17T03:15:01.601Z,15.33
2018-03-17T03:17:28.561Z,14.90
2018-03-17T03:19:56.122Z,15.90
2018-03-17T03:22:22.972Z,15.33
2018-03-17T03:24:49.946Z,14.80
2018-03-17T03:27:16.807Z,15.57
2018-03-17T03:29:43.665Z,14.73
2018-03-17T03:32:10.531Z,14.20
2018-03-17T03:34:37.398Z,13.97
2018-03-17T03:37:04.249Z,15.70
2018-03-17T03:39:31.204Z,13.83
2018-03-17T03:41:58.073Z,15.67
2018-03-17T03:44:25.008Z,13.80
2018-03-17T03:46:51.884Z,15.40
2018-03-17T03:49:18.742Z,14.30
2018-03-17T03:51:45.681Z,13.10
2018-03-17T03:54:12.537Z,14.80
2018-03-17T03:56:39.510Z,15.30
2018-03-17T03:59:06.456Z,15.10
2018-03-17T04:01:33.413Z,13.70
2018-03-17T04:04:00.307Z,13.90
2018-03-17T04:06:27.189Z,13.20
2018-03-17T04:08:54.470Z,14.37
2018-03-17T04:11:21.766Z,14.27
2018-03-17T04:13:48.621Z,14.10
2018-03-17T04:16:15.492Z,13.20
2018-03-17T04:18:42.441Z,14.17
2018-03-17T04:21:09.337Z,13.90
2018-03-17T04:23:36.209Z,13.97
2018-03-17T04:26:03.540Z,13.80
2018-03-17T04:28:30.495Z,14.47
2018-03-17T04:30:57.450Z,14.60
2018-03-17T04:33:24.292Z,14.30
2018-03-17T04:35:51.178Z,14.07
2018-03-17T04:38:18.121Z,13.93
2018-03-17T04:40:45.076Z,14.80
2018-03-17T04:43:12.033Z,14.47
2018-03-17T04:45:38.907Z,13.60
2018-03-17T04:48:05.854Z,14.00
2018-03-17T04:50:32.760Z,15.20
2018-03-17T04:52:59.625Z,15.67
2018-03-17T04:55:27.054Z,15.10
2018-03-17T04:57:53.935Z,14.23
2018-03-17T05:00:20.857Z,14.53
2018-03-17T05:02:47.722Z,15.93
2018-03-17T05:05:14.675Z,14.63
2018-03-17T05:07:41.525Z,14.57
2018-03-17T05:10:08.403Z,15.00
2018-03-17T05:12:35.325Z,15.10
2018-03-17T05:15:02.574Z,14.47
2018-03-17T05:17:29.882Z,14.80
2018-03-17T05:19:56.761Z,13.87
2018-03-17T05:22:23.613Z,14.30
2018-03-17T05:24:50.497Z,14.67
2018-03-17T05:27:17.354Z,15.13
2018-03-17T05:29:44.237Z,14.53
2018-03-17T05:32:11.506Z,14.23
2018-03-17T05:34:38.819Z,13.93
2018-03-17T05:37:05.669Z,14.13
2018-03-17T05:39:32.617Z,14.10
2018-03-17T05:41:59.573Z,13.47
2018-03-17T05:44:26.415Z,13.40
2018-03-17T05:46:53.296Z,15.40
2018-03-17T05:49:20.156Z,13.77
2018-03-17T05:51:47.070Z,14.17
2018-03-17T05:54:14.329Z,13.60
2018-03-17T05:56:41.644Z,14.30
2018-03-17T05:59:08.505Z,13.20
2018-03-17T06:01:35.446Z,15.10
2018-03-17T06:04:02.411Z,15.20
2018-03-17T06:06:29.374Z,12.90
2018-03-17T06:08:56.246Z,13.20
2018-03-17T06:11:23.106Z,14.00
2018-03-17T06:13:50.069Z,15.20
2018-03-17T06:16:17.000Z,14.47
2018-03-17T06:18:43.906Z,14.90
2018-03-17T06:21:10.832Z,13.40
2018-03-17T06:23:37.796Z,14.63
2018-03-17T06:26:04.668Z,14.73
2018-03-17T06:28:31.534Z,14.17
2018-03-17T06:30:58.401Z,12.97
2018-03-17T06:33:25.730Z,13.70
2018-03-17T06:35:52.669Z,13.60
2018-03-17T06:38:19.647Z,13.80
2018-03-17T06:40:46.598Z,13.60
2018-03-17T06:43:13.740Z,13.50
2018-03-17T06:45:40.625Z,14.10
2018-03-17T06:48:07.561Z,13.23
2018-03-17T06:50:34.618Z,12.43
2018-03-17T06:53:01.494Z,14.10
2018-03-17T06:55:28.482Z,14.10
2018-03-17T06:57:55.421Z,12.93
2018-03-17T07:00:22.384Z,13.43
2018-03-17T07:02:49.235Z,13.13
2018-03-17T07:05:16.217Z,12.83
2018-03-17T07:07:43.165Z,14.57
2018-03-17T07:10:10.024Z,13.40
2018-03-17T07:12:36.884Z,13.70
2018-03-17T07:15:03.742Z,13.80
2018-03-17T07:17:30.697Z,12.20
2018-03-17T07:19:57.560Z,13.07
2018-03-17T07:22:24.509Z,13.90
2018-03-17T07:24:52.383Z,12.67
2018-03-17T07:27:19.937Z,13.13
2018-03-17T07:29:47.266Z,11.90
2018-03-17T07:32:14.215Z,12.80
2018-03-17T07:34:41.554Z,13.10
2018-03-17T07:37:09.128Z,13.50
2018-03-17T07:39:36.469Z,12.43
2018-03-17T07:42:03.476Z,12.73
2018-03-17T07:44:30.513Z,12.47
2018-03-17T07:46:57.748Z,12.77
2018-03-17T07:49:25.063Z,12.73
2018-03-17T07:51:52.032Z,12.37
2018-03-17T07:54:18.891Z,13.17
2018-03-17T07:56:45.782Z,12.37
2018-03-17T07:59:12.641Z,11.00
2018-03-17T08:01:39.587Z,12.60
2018-03-17T08:04:06.470Z,12.00
2018-03-17T08:06:33.719Z,12.03
2018-03-17T08:09:00.631Z,11.60
2018-03-17T08:11:27.508Z,12.33
2018-03-17T08:13:54.833Z,13.40
2018-03-17T08:16:21.729Z,11.60
2018-03-17T08:18:48.762Z,11.63
2018-03-17T08:21:16.340Z,11.37
2018-03-17T08:23:43.242Z,12.10
2018-03-17T08:26:10.181Z,11.83
2018-03-17T08:28:37.139Z,12.30
2018-03-17T08:31:04.014Z,12.73
2018-03-17T08:33:30.865Z,10.70
2018-03-17T08:35:57.751Z,11.00
2018-03-17T08:38:24.617Z,12.13
2018-03-17T08:40:51.892Z,11.77
2018-03-17T08:43:19.162Z,11.50
2018-03-17T08:45:46.452Z,12.13
2018-03-17T08:48:13.312Z,12.67
2018-03-17T08:50:40.173Z,11.90
2018-03-17T08:53:07.170Z,11.40
2018-03-17T08:55:33.981Z,12.20
2018-03-17T08:58:00.908Z,12.50
2018-03-17T09:00:27.706Z,11.67
2018-03-17T09:02:54.588Z,10.33
2018-03-17T09:05:21.527Z,11.47
2018-03-17T09:07:48.462Z,11.43
2018-03-17T09:10:15.755Z,12.03
2018-03-17T09:12:42.614Z,11.53
2018-03-17T09:15:09.501Z,10.77
2018-03-17T09:17:36.435Z,12.40
2018-03-17T09:20:03.295Z,9.73
2018-03-17T09:22:30.235Z,11.50
2018-03-17T09:24:57.273Z,11.03
2018-03-17T09:27:24.548Z,11.90
2018-03-17T09:29:51.502Z,12.90
2018-03-17T09:32:18.369Z,10.27
2018-03-17T09:34:45.385Z,11.13
2018-03-17T09:37:12.285Z,11.40
2018-03-17T09:39:39.153Z,12.70
2018-03-17T09:42:06.106Z,11.50
2018-03-17T09:44:32.958Z,11.53
2018-03-17T09:46:59.867Z,11.03
2018-03-17T09:49:26.832Z,10.30
2018-03-17T09:51:53.754Z,11.90
2018-03-17T09:54:20.644Z,11.50
2018-03-17T09:56:47.610Z,12.40
2018-03-17T09:59:14.861Z,11.70
2018-03-17T10:01:41.738Z,10.63
2018-03-17T10:04:09.001Z,12.93
2018-03-17T10:06:36.073Z,10.90
2018-03-17T10:09:03.357Z,10.80
2018-03-17T10:11:30.291Z,10.77
2018-03-17T10:13:57.572Z,11.37
2018-03-17T10:16:24.490Z,11.20
2018-03-17T10:18:51.457Z,10.83
2018-03-17T10:21:18.359Z,10.97
2018-03-17T10:23:45.257Z,9.50
2018-03-17T10:26:12.143Z,11.97
2018-03-17T10:28:39.060Z,11.30
2018-03-17T10:31:05.932Z,10.43
2018-03-17T10:33:32.888Z,11.90
2018-03-17T10:36:00.055Z,10.17
2018-03-17T10:38:26.966Z,10.90
2018-03-17T10:40:54.236Z,11.07
2018-03-17T10:43:21.411Z,10.70
2018-03-17T10:45:48.285Z,10.73
2018-03-17T10:48:15.232Z,10.37
2018-03-17T10:50:42.134Z,10.60
2018-03-17T10:53:09.072Z,10.83
2018-03-17T10:55:35.975Z,10.90
2018-03-17T10:58:03.213Z,11.10
2018-03-17T11:00:30.337Z,10.10
2018-03-17T11:02:57.211Z,9.13
2018-03-17T11:05:24.199Z,9.90
2018-03-17T11:07:51.153Z,10.20
2018-03-17T11:10:18.079Z,9.73
2018-03-17T11:12:45.172Z,10.97
2018-03-17T11:15:12.157Z,10.00
2018-03-17T11:17:39.094Z,10.30
2018-03-17T11:20:06.086Z,10.13
2018-03-17T11:22:32.949Z,9.57
2018-03-17T11:24:59.853Z,10.27
2018-03-17T11:27:26.719Z,10.80
2018-03-17T11:29:53.668Z,10.83
2018-03-17T11:32:20.528Z,9.87
2018-03-17T11:34:47.402Z,11.43
2018-03-17T11:37:14.369Z,10.07
2018-03-17T11:39:41.267Z,10.70
2018-03-17T11:42:08.167Z,10.83
2018-03-17T11:44:35.104Z,10.50
2018-03-17T11:47:02.097Z,10.03
2018-03-17T11:49:29.052Z,10.60
2018-03-17T11:51:56.329Z,10.00
2018-03-17T11:54:23.331Z,9.97
2018-03-17T11:56:50.286Z,10.23
2018-03-17T11:59:17.323Z,10.20
2018-03-17T12:01:44.237Z,8.73
2018-03-17T12:04:11.527Z,10.57
2018-03-17T12:06:38.493Z,10.00
2018-03-17T12:09:05.363Z,9.50
2018-03-17T12:11:32.224Z,9.83
2018-03-17T12:13:59.442Z,10.80
2018-03-17T12:16:26.677Z,9.47
2018-03-17T12:18:53.600Z,9.33
2018-03-17T12:21:20.449Z,11.03
2018-03-17T12:23:47.332Z,9.40
2018-03-17T12:26:14.214Z,9.40
2018-03-17T12:28:41.070Z,9.80
2018-03-17T12:31:07.946Z,9.50
2018-03-17T12:33:35.182Z,9.70
2018-03-17T12:36:02.130Z,9.40
2018-03-17T12:38:29.078Z,8.90
2018-03-17T12:40:55.938Z,9.43
2018-03-17T12:43:22.826Z,9.07
2018-03-17T12:45:49.721Z,9.60
2018-03-17T12:48:17.111Z,10.27
2018-03-17T12:50:44.382Z,9.90
2018-03-17T12:53:11.225Z,9.30
2018-03-17T12:55:38.125Z,10.47
2018-03-17T12:58:04.983Z,10.37
2018-03-17T13:00:31.926Z,9.87
2018-03-17T13:02:58.869Z,9.90
2018-03-17T13:05:25.829Z,9.40
2018-03-17T13:07:52.684Z,9.83
2018-03-17T13:10:19.566Z,10.47
2018-03-17T13:12:46.561Z,9.70
2018-03-17T13:15:13.823Z,10.50
2018-03-17T13:17:40.766Z,10.50
2018-03-17T13:20:07.693Z,10.07
2018-03-17T13:22:46.506Z,10.50
2018-03-17T13:25:13.471Z,9.70
2018-03-17T13:30:35.644Z,9.60
2018-03-17T13:33:02.966Z,9.10
2018-03-17T13:35:41.764Z,9.17
2018-03-17T13:38:09.037Z,10.00
2018-03-17T13:40:43.466Z,10.30
2018-03-17T13:43:10.631Z,9.93
2018-03-17T13:45:37.894Z,8.97
2018-03-17T13:48:04.742Z,8.97
2018-03-17T13:50:31.629Z,9.30
2018-03-17T13:52:58.573Z,9.17
2018-03-17T13:55:25.907Z,9.67
2018-03-17T13:57:52.859Z,9.10
2018-03-17T14:00:19.900Z,9.47
2018-03-17T14:02:46.777Z,9.17
2018-03-17T14:05:13.708Z,8.40
2018-03-17T14:07:40.618Z,9.90
2018-03-17T14:10:07.843Z,9.13
2018-03-17T14:12:34.772Z,9.60
2018-03-17T14:15:01.645Z,9.70
2018-03-17T14:17:28.540Z,10.40
2018-03-17T14:19:55.961Z,9.47
2018-03-17T14:22:22.853Z,10.20
2018-03-17T14:24:49.718Z,10.27
2018-03-17T14:27:16.634Z,10.10
2018-03-17T14:29:43.508Z,9.73
2018-03-17T14:32:10.457Z,10.10
2018-03-17T14:34:37.413Z,10.10
2018-03-17T14:37:04.380Z,9.70
2018-03-17T14:39:31.325Z,9.63
2018-03-17T14:41:58.372Z,10.57
2018-03-17T14:44:25.259Z,10.30
2018-03-17T14:46:52.142Z,9.40
2018-03-17T14:49:18.982Z,10.23
2018-03-17T14:51:45.848Z,11.30
2018-03-17T14:54:12.777Z,11.50
2018-03-17T14:56:39.676Z,10.87
2018-03-17T14:59:06.602Z,10.13
2018-03-17T15:01:33.482Z,9.30
2018-03-17T15:04:00.406Z,10.07
2018-03-17T15:06:27.258Z,10.83
2018-03-17T15:08:54.211Z,10.53
2018-03-17T15:11:21.151Z,9.30
2018-03-17T15:13:48.077Z,10.83
2018-03-17T15:16:14.996Z,10.10
2018-03-17T15:18:41.836Z,10.07
2018-03-17T15:21:08.722Z,9.83
2018-03-17T15:23:35.647Z,10.70
2018-03-17T15:26:02.541Z,10.90
2018-03-17T15:28:29.553Z,10.10
2018-03-17T15:30:56.872Z,9.57
2018-03-17T15:33:23.763Z,10.27
2018-03-17T15:35:50.700Z,11.33
2018-03-17T15:38:17.654Z,10.00
2018-03-17T15:40:44.598Z,10.77
2018-03-17T15:43:11.751Z,9.37
2018-03-17T15:45:39.016Z,9.93
2018-03-17T15:48:05.942Z,10.73
2018-03-17T15:50:32.791Z,9.57
2018-03-17T15:52:59.730Z,9.50
2018-03-17T15:55:26.618Z,10.13
2018-03-17T15:57:53.526Z,9.67
2018-03-17T16:00:20.407Z,10.03
2018-03-17T16:02:47.298Z,9.67
2018-03-17T16:05:14.551Z,9.93
2018-03-17T16:07:41.477Z,10.80
2018-03-17T16:10:08.449Z,10.93
2018-03-17T16:12:35.318Z,9.50
2018-03-17T16:15:02.179Z,10.00
2018-03-17T16:17:29.057Z,11.03
2018-03-17T16:19:56.339Z,9.90
2018-03-17T16:22:23.614Z,10.40
2018-03-17T16:24:50.625Z,11.10
2018-03-17T16:27:17.555Z,10.53
2018-03-17T16:29:44.513Z,10.37
2018-03-17T16:32:11.477Z,10.00
2018-03-17T16:34:38.353Z,10.63
2018-03-17T16:37:05.248Z,9.83
2018-03-17T16:39:32.165Z,10.10
2018-03-17T16:41:59.108Z,10.70
2018-03-17T16:44:25.977Z,11.10
2018-03-17T16:46:53.123Z,11.55
2018-03-17T16:49:20.133Z,11.17
2018-03-17T16:51:47.105Z,11.20
2018-03-17T16:54:13.954Z,10.40
2018-03-17T16:56:40.813Z,10.00
2018-03-17T16:59:07.730Z,10.40
2018-03-17T17:01:34.706Z,10.57
2018-03-17T17:04:01.603Z,11.23
2018-03-17T17:06:28.861Z,11.27
2018-03-17T17:08:55.962Z,10.17
2018-03-17T17:11:23.282Z,10.50
2018-03-17T17:13:50.262Z,10.57
2018-03-17T17:16:17.141Z,11.00
2018-03-17T17:18:43.989Z,9.77
2018-03-17T17:21:11.297Z,9.90
2018-03-17T17:23:38.364Z,10.63
2018-03-17T17:26:05.318Z,9.60
2018-03-17T17:28:32.360Z,10.47
2018-03-17T17:30:59.251Z,9.93
2018-03-17T17:33:26.110Z,10.17
2018-03-17T17:35:53.100Z,10.10
2018-03-17T17:38:20.100Z,11.23
2018-03-17T17:40:46.997Z,10.37
2018-03-17T17:43:13.935Z,10.47
2018-03-17T17:45:40.927Z,9.83
2018-03-17T17:48:07.871Z,10.90
2018-03-17T17:50:34.790Z,9.23
2018-03-17T17:53:02.695Z,9.60
2018-03-17T17:55:29.701Z,8.97
2018-03-17T17:57:56.654Z,9.23
2018-03-17T18:00:23.527Z,9.87
2018-03-17T18:02:50.462Z,8.80
2018-03-17T18:05:17.542Z,10.23
2018-03-17T18:07:44.586Z,10.00
2018-03-17T18:10:11.620Z,8.73
2018-03-17T18:12:38.897Z,10.10
2018-03-17T18:15:05.766Z,10.23
2018-03-17T18:17:32.811Z,9.97
2018-03-17T18:19:59.767Z,10.23
2018-03-17T18:22:27.010Z,9.47
2018-03-17T18:24:54.326Z,10.20
2018-03-17T18:27:21.221Z,8.83
2018-03-17T18:29:48.097Z,9.53
2018-03-17T18:32:15.414Z,9.00
2018-03-17T18:34:42.357Z,8.47
2018-03-17T18:37:09.253Z,8.43
2018-03-17T18:39:36.094Z,9.57
2018-03-17T18:42:02.958Z,8.70
2018-03-17T18:44:29.834Z,8.57
2018-03-17T18:46:56.711Z,7.97
2018-03-17T18:49:24.017Z,9.13
2018-03-17T18:51:50.900Z,9.30
2018-03-17T18:54:17.841Z,9.83
2018-03-17T18:56:44.797Z,8.63
2018-03-17T18:59:11.765Z,9.00
2018-03-17T19:01:38.628Z,9.87
2018-03-17T19:04:05.570Z,9.33
2018-03-17T19:06:32.417Z,9.10
2018-03-17T19:08:59.412Z,8.73
2018-03-17T19:11:26.461Z,8.80
2018-03-17T19:13:53.357Z,10.30
2018-03-17T19:16:20.218Z,8.50
2018-03-17T19:18:47.488Z,9.40
2018-03-17T19:21:14.737Z,8.40
2018-03-17T19:23:41.627Z,9.87
2018-03-17T19:26:08.499Z,8.13
2018-03-17T19:28:35.382Z,9.40
2018-03-17T19:31:02.321Z,8.37
2018-03-17T19:33:29.188Z,8.60
2018-03-17T19:35:56.925Z,10.67
2018-03-17T19:38:24.244Z,8.67
2018-03-17T19:40:51.098Z,10.80
2018-03-17T19:43:17.977Z,8.80
2018-03-17T19:45:44.902Z,9.40
2018-03-17T19:48:11.841Z,9.40
2018-03-17T19:50:39.158Z,10.17
2018-03-17T19:53:06.044Z,10.13
2018-03-17T19:55:33.294Z,10.20
2018-03-17T19:58:00.182Z,9.50
2018-03-17T20:00:27.459Z,8.87
2018-03-17T20:02:54.785Z,10.17
2018-03-17T20:05:21.673Z,9.10
2018-03-17T20:07:48.961Z,9.87
2018-03-17T20:10:15.830Z,9.60
2018-03-17T20:12:42.694Z,9.70
2018-03-17T20:15:09.568Z,9.43
2018-03-17T20:17:36.472Z,10.13
2018-03-17T20:20:03.774Z,9.60
2018-03-17T20:22:30.620Z,9.53
2018-03-17T20:24:57.602Z,10.40
2018-03-17T20:27:24.496Z,10.57
2018-03-17T20:29:51.333Z,8.50
2018-03-17T20:32:18.272Z,10.67
2018-03-17T20:34:45.136Z,8.70
2018-03-17T20:37:12.171Z,9.20
2018-03-17T20:39:38.961Z,9.90
2018-03-17T20:42:05.947Z,10.87
2018-03-17T20:44:32.819Z,11.17
2018-03-17T20:47:00.129Z,10.60
2018-03-17T20:49:27.011Z,9.53
2018-03-17T20:51:54.023Z,10.20
2018-03-17T20:54:21.288Z,10.60
2018-03-17T20:56:48.452Z,10.33
2018-03-17T20:59:15.709Z,10.23
2018-03-17T21:01:42.609Z,11.30
2018-03-17T21:04:09.550Z,10.33
2018-03-17T21:06:36.430Z,11.10
2018-03-17T21:09:03.287Z,11.37
2018-03-17T21:11:30.224Z,12.43
2018-03-17T21:13:57.108Z,11.50
2018-03-17T21:16:23.993Z,9.83
2018-03-17T21:18:51.248Z,10.40
2018-03-17T21:21:18.453Z,10.97
2018-03-17T21:23:45.399Z,10.67
2018-03-17T21:26:12.716Z,10.80
2018-03-17T21:28:39.673Z,10.43
2018-03-17T21:31:06.617Z,10.63
2018-03-17T21:33:33.479Z,11.17
2018-03-17T21:36:00.418Z,11.00
2018-03-17T21:38:27.829Z,10.47
2018-03-17T21:40:54.697Z,10.93
2018-03-17T21:43:21.618Z,9.73
2018-03-17T21:45:48.514Z,10.87
2018-03-17T21:48:15.405Z,11.83
2018-03-17T21:50:42.298Z,9.97
2018-03-17T21:53:09.253Z,11.10
2018-03-17T21:55:36.292Z,12.33
2018-03-17T21:58:03.552Z,10.93
2018-03-17T22:00:30.620Z,11.30
2018-03-17T22:02:57.907Z,10.33
2018-03-17T22:05:24.882Z,12.20
2018-03-17T22:07:51.808Z,9.97
2018-03-17T22:10:19.057Z,11.40
2018-03-17T22:12:46.357Z,10.63
2018-03-17T22:15:13.233Z,11.73
2018-03-17T22:17:40.100Z,10.60
2018-03-17T22:20:07.039Z,11.37
2018-03-17T22:22:33.986Z,11.77
2018-03-17T22:25:00.860Z,11.50
2018-03-17T22:27:27.740Z,11.50
2018-03-17T22:29:54.633Z,11.33
2018-03-17T22:32:21.500Z,11.90
2018-03-17T22:34:48.611Z,11.90
2018-03-17T22:37:15.461Z,11.20
2018-03-17T22:39:42.332Z,12.17
2018-03-17T22:42:09.249Z,11.20
2018-03-17T22:44:36.245Z,11.80
2018-03-17T22:47:03.226Z,11.03
2018-03-17T22:49:30.531Z,12.30
2018-03-17T22:51:57.402Z,11.37
2018-03-17T22:54:24.375Z,12.00
2018-03-17T22:56:51.315Z,12.20
2018-03-17T22:59:18.234Z,12.23
2018-03-17T23:01:45.078Z,11.30
2018-03-17T23:04:12.110Z,10.80
2018-03-17T23:06:39.058Z,12.40
2018-03-17T23:09:05.941Z,12.00
2018-03-17T23:11:32.801Z,10.90
2018-03-17T23:13:59.719Z,12.23
2018-03-17T23:16:26.809Z,12.67
2018-03-17T23:18:53.680Z,12.67
2018-03-17T23:21:20.594Z,12.40
2018-03-17T23:23:47.649Z,12.17
2018-03-17T23:26:14.645Z,11.67
2018-03-17T23:28:41.521Z,13.20
2018-03-17T23:31:08.440Z,11.83
2018-03-17T23:33:35.319Z,11.63
2018-03-17T23:36:02.258Z,11.00
2018-03-17T23:38:29.212Z,12.13
2018-03-17T23:40:56.141Z,11.13
2018-03-17T23:43:23.037Z,12.73
2018-03-17T23:45:50.007Z,11.20
2018-03-17T23:48:16.965Z,11.90
2018-03-17T23:50:43.822Z,12.80
2018-03-17T23:53:11.103Z,11.47
2018-03-17T23:55:38.053Z,12.63
2018-03-17T23:58:04.998Z,11.13
